Time;durP1;ratioP1;P1;durP2;ratioP2;P2;SDS_P1;SDS_P2;PMS_P1;PMS_P2;Temp;Humidity;BMP_temperature;BMP_pressure;BME280_temperature;BME280_humidity;BME280_pressure;Samples;Min_cycle;Max_cycle;Signal;HPM_P1;HPM_P2
2024/01/16 00:01:54;;;;;;;4.68;1.10;;;;;;;0.45;61.51;99195.31;10517906;28;20783;-66
2024/01/16 00:06:56;;;;;;;2.90;1.25;;;;;;;0.42;61.44;99197.97;10517302;28;20051;-66
2024/01/16 00:11:58;;;;;;;5.47;2.05;;;;;;;0.29;62.24;99211.25;10517749;28;20040;-66
2024/01/16 00:17:00;;;;;;;1.75;1.33;;;;;;;0.45;61.56;99202.19;10521456;28;20054;-67
2024/01/16 00:22:04;;;;;;;2.30;1.38;;;;;;;0.21;61.90;99210.63;10517482;28;20491;-66
2024/01/16 00:27:06;;;;;;;1.25;0.90;;;;;;;0.13;62.42;99210.88;10500958;28;20412;-67
2024/01/16 00:32:15;;;;;;;1.30;1.10;;;;;;;0.16;62.43;99215.91;10518437;28;20052;-66
2024/01/16 00:37:18;;;;;;;2.70;1.35;;;;;;;0.25;62.53;99225.09;10501114;28;20268;-66
2024/01/16 00:42:20;;;;;;;4.07;1.50;;;;;;;0.20;62.77;99212.34;10518860;28;20275;-66
2024/01/16 00:47:22;;;;;;;3.58;1.27;;;;;;;0.22;63.10;99225.19;10498715;28;20055;-66
2024/01/16 00:52:24;;;;;;;3.20;1.48;;;;;;;0.27;62.86;99231.88;10507948;28;20040;-66
2024/01/16 00:57:26;;;;;;;2.53;1.65;;;;;;;0.36;62.65;99230.78;10524586;28;20270;-67
2024/01/16 01:02:28;;;;;;;3.58;1.50;;;;;;;0.43;62.52;99242.53;10525026;28;20480;-67
2024/01/16 01:07:30;;;;;;;1.63;0.98;;;;;;;0.41;62.48;99242.59;10523993;28;20048;-66
2024/01/16 01:12:33;;;;;;;2.55;1.50;;;;;;;0.49;61.92;99245.78;10524550;28;20086;-66
2024/01/16 01:17:34;;;;;;;4.47;1.50;;;;;;;0.41;61.97;99247.75;10527410;28;20123;-66
2024/01/16 01:22:37;;;;;;;2.22;1.30;;;;;;;0.39;61.89;99252.09;10523703;28;20309;-66
2024/01/16 01:27:39;;;;;;;2.38;1.42;;;;;;;0.54;61.71;99245.66;10520181;28;20091;-66
2024/01/16 01:32:41;;;;;;;2.47;1.38;;;;;;;0.50;61.40;99251.78;10505411;28;20056;-66
2024/01/16 01:37:43;;;;;;;1.95;1.40;;;;;;;0.50;61.54;99257.75;10524436;28;20492;-66
2024/01/16 01:42:45;;;;;;;2.30;1.30;;;;;;;0.57;61.53;99258.41;10523747;28;20070;-66
2024/01/16 01:47:48;;;;;;;2.05;1.35;;;;;;;0.58;61.64;99260.09;10530172;28;20059;-65
2024/01/16 01:52:50;;;;;;;3.90;1.73;;;;;;;0.53;62.10;99264.53;10521544;28;20058;-66
2024/01/16 01:57:52;;;;;;;3.25;1.67;;;;;;;0.68;62.15;99264.09;10513058;28;20043;-66
2024/01/16 02:02:54;;;;;;;5.25;1.48;;;;;;;0.55;62.22;99267.91;10522120;28;20134;-66
2024/01/16 02:07:56;;;;;;;3.28;1.58;;;;;;;0.62;62.25;99274.56;10521141;28;20532;-66
2024/01/16 02:12:58;;;;;;;3.22;1.50;;;;;;;0.57;62.55;99276.41;10522700;28;20048;-67
2024/01/16 02:18:00;;;;;;;2.00;1.50;;;;;;;0.60;62.58;99281.47;10540588;27;20047;-66
2024/01/16 02:23:03;;;;;;;3.92;1.92;;;;;;;0.56;62.66;99282.47;10520661;28;20161;-67
2024/01/16 02:28:05;;;;;;;4.28;1.65;;;;;;;0.48;62.71;99277.53;10525173;28;20044;-67
2024/01/16 02:33:08;;;;;;;2.58;1.40;;;;;;;0.47;62.68;99282.72;10525466;28;20044;-67
2024/01/16 02:38:10;;;;;;;3.67;1.88;;;;;;;0.64;62.24;99283.06;10523709;28;20056;-66
2024/01/16 02:43:12;;;;;;;2.17;1.35;;;;;;;0.72;61.85;99285.41;10524763;28;20085;-67
2024/01/16 02:48:14;;;;;;;2.22;1.38;;;;;;;0.70;61.79;99280.31;10501642;28;20136;-67
2024/01/16 02:53:17;;;;;;;3.78;1.42;;;;;;;0.73;61.54;99285.34;10486186;28;20040;-66
2024/01/16 02:58:19;;;;;;;5.65;1.83;;;;;;;0.78;60.75;99283.50;10520290;28;20051;-66
2024/01/16 03:03:21;;;;;;;2.65;1.70;;;;;;;0.84;61.01;99278.16;10522731;28;20046;-66
2024/01/16 03:08:23;;;;;;;7.30;2.00;;;;;;;0.81;60.88;99275.66;10522471;28;20048;-66
2024/01/16 03:13:25;;;;;;;3.42;1.70;;;;;;;0.75;61.01;99275.84;10522182;28;20044;-67
2024/01/16 03:18:27;;;;;;;3.22;2.00;;;;;;;0.69;60.69;99286.34;10518279;28;20504;-67
2024/01/16 03:23:29;;;;;;;7.45;2.03;;;;;;;0.60;60.70;99283.22;10521986;28;20047;-66
2024/01/16 03:28:31;;;;;;;7.82;1.75;;;;;;;0.59;60.72;99284.13;10520011;28;20043;-66
2024/01/16 03:33:34;;;;;;;4.35;1.70;;;;;;;0.59;60.61;99292.66;10518401;28;20236;-66
2024/01/16 03:38:36;;;;;;;2.38;1.30;;;;;;;0.65;60.64;99296.78;10520437;28;20501;-65
2024/01/16 03:43:39;;;;;;;5.05;2.30;;;;;;;0.67;61.19;99300.97;10520274;28;20119;-66
2024/01/16 03:48:41;;;;;;;2.67;1.50;;;;;;;0.48;61.50;99305.81;10501351;28;20307;-66
2024/01/16 03:53:43;;;;;;;5.75;2.17;;;;;;;0.64;61.62;99316.53;10520580;28;20042;-65
2024/01/16 03:58:46;;;;;;;2.70;1.55;;;;;;;0.74;61.56;99307.66;10499736;28;20123;-66
2024/01/16 04:03:48;;;;;;;3.13;1.55;;;;;;;0.59;61.97;99307.28;10520757;28;20050;-65
2024/01/16 04:08:50;;;;;;;6.80;2.55;;;;;;;0.56;61.92;99309.91;10521799;28;20048;-67
2024/01/16 04:13:51;;;;;;;4.05;1.50;;;;;;;0.44;61.74;99317.09;10497568;28;20105;-66
2024/01/16 04:18:54;;;;;;;4.05;1.67;;;;;;;0.39;61.89;99321.53;10496845;28;20523;-67
2024/01/16 04:23:56;;;;;;;3.75;1.25;;;;;;;0.43;61.73;99318.00;10525115;28;20063;-67
2024/01/16 04:28:58;;;;;;;6.95;1.58;;;;;;;0.56;61.11;99303.03;10514479;28;20487;-67
2024/01/16 04:34:00;;;;;;;4.32;1.60;;;;;;;0.56;61.40;99310.75;10497891;28;20054;-66
2024/01/16 04:39:03;;;;;;;3.30;1.45;;;;;;;0.60;60.99;99308.94;10513264;28;20052;-66
2024/01/16 04:44:05;;;;;;;5.75;2.22;;;;;;;0.51;60.92;99321.19;10519020;28;20492;-66
2024/01/16 04:49:08;;;;;;;2.25;1.40;;;;;;;0.41;61.15;99316.34;10514434;28;20597;-65
2024/01/16 04:54:11;;;;;;;2.60;1.50;;;;;;;0.46;61.03;99311.91;10512854;28;20048;-65
2024/01/16 04:59:13;;;;;;;3.67;1.73;;;;;;;0.49;60.51;99309.25;10502066;28;20035;-66
2024/01/16 05:04:18;;;;;;;7.35;1.92;;;;;;;0.53;60.76;99308.28;10519832;28;20071;-66
2024/01/16 05:09:20;;;;;;;10.40;1.85;;;;;;;0.52;60.56;99312.56;10512565;28;20048;-65
2024/01/16 05:14:24;;;;;;;3.53;1.75;;;;;;;0.38;60.83;99304.41;10500763;28;20616;-65
2024/01/16 05:19:26;;;;;;;4.05;1.73;;;;;;;0.25;60.93;99307.38;10515602;28;20052;-66
2024/01/16 05:24:29;;;;;;;2.25;1.67;;;;;;;0.20;61.23;99306.69;10517037;28;20036;-65
2024/01/16 05:29:31;;;;;;;5.15;1.98;;;;;;;0.22;61.58;99310.88;10516094;28;20052;-65
2024/01/16 05:34:33;;;;;;;4.00;2.08;;;;;;;0.18;61.83;99308.44;10516665;28;20511;-65
2024/01/16 05:39:36;;;;;;;2.78;1.88;;;;;;;0.33;61.66;99305.44;10515228;28;20526;-65
2024/01/16 05:44:38;;;;;;;5.38;2.08;;;;;;;0.25;61.44;99305.66;10526721;28;20219;-65
2024/01/16 05:49:41;;;;;;;12.45;5.47;;;;;;;0.26;61.79;99293.66;10524344;28;20050;-65
2024/01/16 05:54:44;;;;;;;7.22;2.72;;;;;;;0.26;61.38;99297.03;10523195;28;20500;-65
2024/01/16 05:59:46;;;;;;;7.60;4.82;;;;;;;0.15;61.62;99286.22;10525151;28;20499;-65
2024/01/16 06:04:48;;;;;;;3.75;2.20;;;;;;;0.13;61.80;99288.00;10523352;28;20059;-65
2024/01/16 06:09:50;;;;;;;3.85;2.28;;;;;;;0.27;61.59;99285.88;10522185;28;20056;-64
2024/01/16 06:14:52;;;;;;;4.95;2.08;;;;;;;0.31;61.46;99278.91;10522902;28;20043;-66
2024/01/16 06:19:54;;;;;;;2.45;1.60;;;;;;;0.39;61.39;99270.09;10520385;28;20520;-66
2024/01/16 06:24:56;;;;;;;3.20;2.00;;;;;;;0.41;61.22;99276.03;10522642;28;20538;-65
2024/01/16 06:29:58;;;;;;;3.38;1.75;;;;;;;0.21;61.38;99270.63;10521654;28;20584;-65
2024/01/16 06:35:00;;;;;;;4.32;1.90;;;;;;;-0.01;61.43;99273.84;10504237;28;20062;-67
2024/01/16 06:40:04;;;;;;;3.92;1.58;;;;;;;-0.20;61.43;99276.06;10522375;28;20133;-65
2024/01/16 06:45:06;;;;;;;4.18;2.13;;;;;;;-0.43;61.59;99280.94;10505642;28;20036;-65
2024/01/16 06:50:08;;;;;;;3.00;1.70;;;;;;;-0.46;61.81;99275.91;10522321;28;20158;-66
2024/01/16 06:55:10;;;;;;;4.15;1.70;;;;;;;-0.44;62.00;99267.28;10523580;28;20040;-65
2024/01/16 07:00:14;;;;;;;4.47;1.70;;;;;;;-0.50;62.03;99280.28;10523062;28;20137;-65
2024/01/16 07:05:16;;;;;;;3.00;1.95;;;;;;;-0.56;61.85;99275.31;10527159;28;20179;-66
2024/01/16 07:10:18;;;;;;;5.03;1.70;;;;;;;-0.79;62.04;99285.28;10522603;28;20074;-65
2024/01/16 07:15:20;;;;;;;2.90;1.60;;;;;;;-0.85;62.11;99279.47;10521909;28;20052;-65
2024/01/16 07:20:22;;;;;;;2.38;1.70;;;;;;;-0.91;62.29;99289.88;10506097;28;20147;-65
2024/01/16 07:25:24;;;;;;;9.13;2.28;;;;;;;-0.88;62.42;99295.78;10519910;28;20047;-66
2024/01/16 07:30:26;;;;;;;3.42;1.83;;;;;;;-0.68;62.35;99306.44;10518191;28;20036;-64
2024/01/16 07:35:28;;;;;;;4.57;1.90;;;;;;;-0.64;62.12;99302.91;10521405;28;20047;-65
2024/01/16 07:40:30;;;;;;;3.78;1.70;;;;;;;-0.53;61.72;99306.03;10519472;28;20480;-65
2024/01/16 07:45:32;;;;;;;6.57;1.80;;;;;;;-0.48;61.59;99309.34;10518585;28;20036;-65
2024/01/16 07:50:34;;;;;;;4.32;2.03;;;;;;;-0.35;61.52;99299.56;10520346;28;20042;-65
2024/01/16 07:55:36;;;;;;;4.50;2.15;;;;;;;-0.33;61.10;99308.09;10518832;28;20047;-64
2024/01/16 08:00:39;;;;;;;2.67;1.73;;;;;;;-0.27;60.85;99317.38;10518520;28;20036;-64
2024/01/16 08:05:41;;;;;;;3.90;1.70;;;;;;;-0.23;60.76;99321.56;10517523;28;20116;-65
2024/01/16 08:10:44;;;;;;;3.20;1.67;;;;;;;-0.16;60.45;99320.50;10516999;28;20054;-65
2024/01/16 08:15:46;;;;;;;2.05;1.65;;;;;;;-0.00;60.33;99334.63;10518003;28;20059;-65
2024/01/16 08:20:48;;;;;;;4.32;1.50;;;;;;;0.08;59.70;99330.13;10518616;28;20119;-65
2024/01/16 08:25:51;;;;;;;6.15;1.40;;;;;;;0.09;59.75;99329.25;10519338;28;20036;-65
2024/01/16 08:30:53;;;;;;;2.50;1.30;;;;;;;-0.08;59.61;99334.00;10519516;28;20151;-66
2024/01/16 08:35:55;;;;;;;3.95;2.08;;;;;;;-0.14;59.79;99331.59;10517856;28;20055;-65
2024/01/16 08:40:57;;;;;;;4.00;1.63;;;;;;;-0.03;59.18;99337.31;10515632;28;20624;-65
2024/01/16 08:45:59;;;;;;;2.08;1.33;;;;;;;-0.12;59.30;99342.66;10513928;28;20490;-66
2024/01/16 08:51:07;;;;;;;2.20;1.40;;;;;;;0.19;59.50;99333.25;10517358;28;20957;-68
2024/01/16 08:56:09;;;;;;;2.08;1.30;;;;;;;0.47;58.52;99331.59;10498624;28;20047;-68
2024/01/16 09:01:11;;;;;;;3.00;1.90;;;;;;;0.77;57.93;99330.69;10501031;28;20139;-67
2024/01/16 09:06:13;;;;;;;2.78;1.48;;;;;;;0.66;56.79;99330.19;10516575;28;20056;-68
2024/01/16 09:11:15;;;;;;;2.67;1.70;;;;;;;0.67;57.29;99331.84;10516627;28;20059;-68
2024/01/16 09:16:17;;;;;;;6.85;1.52;;;;;;;0.97;57.31;99338.66;10527402;28;20488;-68
2024/01/16 09:21:19;;;;;;;3.65;2.15;;;;;;;1.00;56.58;99340.31;10526493;28;20132;-68
2024/01/16 09:26:21;;;;;;;2.33;1.40;;;;;;;0.85;56.72;99349.31;10529787;27;21152;-68
2024/01/16 09:31:24;;;;;;;8.48;2.45;;;;;;;1.30;55.30;99363.38;10502673;28;20056;-68
2024/01/16 09:36:26;;;;;;;2.63;1.58;;;;;;;1.78;54.62;99358.38;10536547;28;20217;-68
2024/01/16 09:41:28;;;;;;;4.78;1.90;;;;;;;2.09;54.69;99351.28;10522154;28;20174;-69
2024/01/16 09:46:31;;;;;;;2.88;1.75;;;;;;;2.03;54.48;99364.38;10528769;28;20136;-68
2024/01/16 09:51:33;;;;;;;3.60;2.15;;;;;;;2.04;54.37;99354.91;10520357;28;20422;-68
2024/01/16 09:56:41;;;;;;;3.58;1.67;;;;;;;1.88;53.21;99359.75;10526171;28;20378;-68
2024/01/16 10:01:44;;;;;;;3.58;1.67;;;;;;;1.68;54.26;99359.59;10519350;28;20044;-68
2024/01/16 10:06:47;;;;;;;2.15;1.33;;;;;;;1.88;54.19;99358.91;10520091;28;20130;-68
2024/01/16 10:11:50;;;;;;;3.35;1.80;;;;;;;2.17;53.71;99354.44;10522550;28;20664;-68
2024/01/16 10:17:05;;;;;;;2.60;1.60;;;;;;;2.40;51.95;99357.97;10519713;28;20045;-68
2024/01/16 10:22:08;;;;;;;3.25;1.73;;;;;;;2.10;53.23;99355.56;10520255;28;20527;-68
2024/01/16 10:27:10;;;;;;;4.13;1.92;;;;;;;2.08;52.95;99352.19;10518907;28;20251;-68
2024/01/16 10:32:12;;;;;;;4.40;1.90;;;;;;;2.00;53.12;99349.03;10519376;28;20131;-67
2024/01/16 10:37:15;;;;;;;2.20;1.40;;;;;;;1.92;53.06;99334.72;10520825;28;20052;-68
2024/01/16 10:42:20;;;;;;;2.95;1.77;;;;;;;2.05;53.11;99320.50;10436947;28;20698;-66
2024/01/16 10:47:22;;;;;;;2.55;1.73;;;;;;;2.36;51.31;99315.91;10439055;28;20053;-66
2024/01/16 10:52:28;;;;;;;3.55;1.50;;;;;;;2.63;51.88;99314.06;10442572;28;20057;-66
2024/01/16 10:57:32;;;;;;;3.38;1.65;;;;;;;2.65;51.14;99307.09;10441275;28;20076;-66
2024/01/16 11:03:09;;;;;;;3.05;1.65;;;;;;;3.11;49.93;99309.59;10440628;28;20145;-66
2024/01/16 11:08:16;;;;;;;2.75;1.55;;;;;;;3.29;50.85;99297.72;10429582;28;20102;-67
2024/01/16 11:13:21;;;;;;;4.68;1.30;;;;;;;3.42;50.70;99286.81;10434373;28;20084;-67
2024/01/16 11:18:24;;;;;;;3.22;1.52;;;;;;;3.24;49.77;99279.81;10434143;28;20052;-66
2024/01/16 11:23:27;;;;;;;3.20;1.50;;;;;;;3.38;50.37;99266.31;10434200;28;20037;-66
2024/01/16 11:28:30;;;;;;;1.75;1.10;;;;;;;3.24;50.57;99269.47;10439839;28;20052;-66
2024/01/16 11:33:32;;;;;;;7.20;1.63;;;;;;;2.87;50.63;99257.16;10440107;28;20489;-66
2024/01/16 11:38:35;;;;;;;3.65;1.80;;;;;;;2.54;50.79;99262.81;10461486;28;20356;-66
2024/01/16 11:43:38;;;;;;;6.78;2.35;;;;;;;2.27;50.76;99248.34;10514530;28;20051;-66
2024/01/16 11:48:40;;;;;;;3.08;1.70;;;;;;;2.29;51.10;99238.81;10516156;28;20052;-67
2024/01/16 11:53:45;;;;;;;6.53;2.47;;;;;;;2.35;50.71;99228.25;10521778;28;20128;-68
2024/01/16 11:59:24;;;;;;;6.68;1.73;;;;;;;2.22;49.73;99223.56;10521489;28;20050;-66
2024/01/16 12:04:27;;;;;;;3.80;1.70;;;;;;;2.20;50.42;99220.19;10515989;28;20419;-67
2024/01/16 12:09:29;;;;;;;4.07;1.75;;;;;;;2.20;50.83;99222.78;10517562;28;20701;-66
2024/01/16 12:14:32;;;;;;;3.53;1.35;;;;;;;2.02;50.00;99226.03;10521895;28;20055;-66
2024/01/16 12:19:34;;;;;;;4.35;1.67;;;;;;;1.75;50.93;99215.84;10529590;28;20044;-66
2024/01/16 12:24:37;;;;;;;4.72;1.20;;;;;;;2.07;50.58;99218.13;10515918;28;20044;-68
2024/01/16 12:29:42;;;;;;;2.15;0.82;;;;;;;2.16;49.60;99215.19;10502294;28;20048;-66
2024/01/16 12:34:48;;;;;;;3.40;1.40;;;;;;;2.15;49.40;99198.88;10503554;28;20537;-66
2024/01/16 12:39:52;;;;;;;2.03;1.27;;;;;;;1.91;49.68;99204.94;10513839;28;20055;-66
2024/01/16 12:44:54;;;;;;;4.93;1.75;;;;;;;2.05;50.17;99192.38;10500561;28;20044;-66
2024/01/16 12:49:56;;;;;;;1.70;1.17;;;;;;;2.03;49.63;99193.38;10514608;28;20443;-68
2024/01/16 12:55:04;;;;;;;1.63;1.33;;;;;;;1.93;49.80;99179.13;10522456;28;20060;-66
2024/01/16 13:00:23;;;;;;;1.95;1.25;;;;;;;1.71;49.41;99176.47;10529712;28;20032;-66
2024/01/16 13:05:25;;;;;;;1.15;0.90;;;;;;;1.86;50.14;99169.91;10502442;28;20446;-66
2024/01/16 13:10:30;;;;;;;4.63;1.10;;;;;;;1.83;49.55;99154.56;10521622;28;20307;-66
2024/01/16 13:15:32;;;;;;;2.20;1.15;;;;;;;1.92;49.50;99160.22;10504291;28;20046;-68
2024/01/16 13:20:34;;;;;;;1.83;1.25;;;;;;;2.09;49.44;99157.03;10522360;28;20048;-69
2024/01/16 13:25:36;;;;;;;1.00;0.90;;;;;;;1.82;49.51;99160.63;10520564;28;20038;-66
2024/01/16 13:30:38;;;;;;;3.97;2.17;;;;;;;1.72;49.73;99156.69;10510826;28;20116;-66
2024/01/16 13:35:48;;;;;;;6.77;2.87;;;;;;;1.51;49.51;99148.00;10532501;28;20486;-67
2024/01/16 13:40:50;;;;;;;3.92;1.75;;;;;;;1.28;50.24;99143.66;10518986;28;20653;-66
2024/01/16 13:45:52;;;;;;;4.00;2.03;;;;;;;1.00;50.62;99144.63;10521040;28;20055;-68
2024/01/16 13:50:54;;;;;;;2.65;1.58;;;;;;;1.01;50.53;99144.63;10524482;28;20055;-66
2024/01/16 13:55:58;;;;;;;7.20;1.55;;;;;;;1.24;50.54;99147.22;10524990;28;20802;-66
2024/01/16 14:01:00;;;;;;;2.30;1.50;;;;;;;1.66;50.11;99154.34;10505860;28;20569;-68
2024/01/16 14:06:02;;;;;;;1.77;1.35;;;;;;;1.96;49.68;99143.75;10520152;28;20062;-68
2024/01/16 14:11:06;;;;;;;3.45;1.40;;;;;;;1.96;49.14;99145.47;10500672;28;20071;-66
2024/01/16 14:16:08;;;;;;;1.77;1.27;;;;;;;1.80;49.66;99147.78;10517951;28;20113;-66
2024/01/16 14:21:10;;;;;;;3.08;1.67;;;;;;;1.76;49.77;99151.38;10519347;28;20135;-68
2024/01/16 14:26:12;;;;;;;2.95;1.38;;;;;;;1.73;50.08;99159.22;10518039;28;20508;-68
2024/01/16 14:31:14;;;;;;;2.30;1.40;;;;;;;1.89;49.69;99154.34;10504314;28;20064;-65
2024/01/16 14:36:18;;;;;;;2.63;1.48;;;;;;;2.01;50.07;99149.56;10517663;28;20050;-68
2024/01/16 14:41:21;;;;;;;2.17;1.50;;;;;;;2.28;49.78;99145.09;10517201;28;20517;-68
2024/01/16 14:46:23;;;;;;;3.15;1.60;;;;;;;2.09;49.97;99155.25;10520897;28;20184;-67
2024/01/16 14:51:25;;;;;;;2.95;1.40;;;;;;;2.07;49.54;99148.50;10520651;28;20055;-67
2024/01/16 14:56:27;;;;;;;3.55;2.10;;;;;;;1.80;48.56;99154.69;10520658;28;20032;-67
2024/01/16 15:01:29;;;;;;;3.97;1.63;;;;;;;1.98;50.15;99152.25;10521065;28;20487;-66
2024/01/16 15:06:32;;;;;;;2.42;1.30;;;;;;;1.93;49.28;99159.31;10520102;28;20040;-66
2024/01/16 15:11:34;;;;;;;4.95;2.00;;;;;;;1.78;49.78;99154.75;10521315;28;20433;-66
2024/01/16 15:16:36;;;;;;;3.90;1.40;;;;;;;1.46;49.53;99143.91;10519022;28;20275;-66
2024/01/16 15:21:39;;;;;;;8.23;1.83;;;;;;;1.05;49.97;99135.03;10518157;28;20043;-67
2024/01/16 15:26:41;;;;;;;0.98;0.93;;;;;;;0.84;50.33;99128.88;10501467;28;20544;-66
2024/01/16 15:31:43;;;;;;;4.15;1.60;;;;;;;0.66;50.97;99134.63;10519810;28;20108;-67
2024/01/16 15:36:46;;;;;;;5.57;1.50;;;;;;;0.58;51.10;99134.03;10525557;28;20051;-66
2024/01/16 15:41:48;;;;;;;4.80;1.30;;;;;;;0.49;51.34;99134.31;10517887;28;20058;-66
2024/01/16 15:46:57;;;;;;;5.50;1.20;;;;;;;0.39;51.42;99135.50;10517954;28;20053;-66
2024/01/16 15:51:59;;;;;;;4.45;1.38;;;;;;;0.25;52.26;99143.66;10532767;28;20050;-66
2024/01/16 15:57:01;;;;;;;1.92;1.33;;;;;;;0.08;52.16;99140.75;10518441;28;20181;-66
2024/01/16 16:02:03;;;;;;;4.20;1.50;;;;;;;-0.07;52.78;99132.66;10524721;28;20071;-67
2024/01/16 16:07:06;;;;;;;2.13;1.17;;;;;;;-0.24;53.07;99135.72;10502530;28;20056;-67
2024/01/16 16:12:09;;;;;;;3.00;1.55;;;;;;;-0.44;53.46;99141.44;10515403;28;20047;-67
2024/01/16 16:17:11;;;;;;;2.00;1.52;;;;;;;-0.61;53.83;99133.34;10524782;28;20412;-67
2024/01/16 16:22:13;;;;;;;8.85;1.80;;;;;;;-0.78;54.28;99124.41;10513171;28;20040;-67
2024/01/16 16:27:24;;;;;;;2.05;1.33;;;;;;;-0.87;54.29;99128.06;10520199;28;20290;-67
2024/01/16 16:32:26;;;;;;;2.15;1.40;;;;;;;-0.96;54.58;99148.00;10517619;28;20496;-67
2024/01/16 16:37:28;;;;;;;1.42;1.20;;;;;;;-1.04;54.86;99149.94;10514545;28;20044;-67
2024/01/16 16:42:31;;;;;;;5.53;1.40;;;;;;;-1.10;55.19;99152.66;10496838;28;20144;-67
2024/01/16 16:47:33;;;;;;;2.67;1.60;;;;;;;-1.16;55.64;99161.31;10513188;28;20735;-67
2024/01/16 16:52:36;;;;;;;3.83;1.60;;;;;;;-1.16;55.49;99158.75;10514538;28;20081;-67
2024/01/16 16:57:39;;;;;;;2.53;1.70;;;;;;;-1.18;55.68;99157.94;10513018;28;20395;-67
2024/01/16 17:02:41;;;;;;;3.95;2.10;;;;;;;-1.25;55.82;99153.88;10514966;28;20112;-67
2024/01/16 17:07:44;;;;;;;3.40;1.50;;;;;;;-1.34;55.97;99160.06;10515205;28;20489;-61
2024/01/16 17:12:46;;;;;;;5.10;2.10;;;;;;;-1.46;56.11;99154.38;10515187;28;20052;-61
2024/01/16 17:17:48;;;;;;;3.92;2.00;;;;;;;-1.56;56.74;99163.16;10514478;28;20048;-60
2024/01/16 17:22:50;;;;;;;4.93;2.30;;;;;;;-1.69;56.71;99167.72;10513967;28;20518;-61
2024/01/16 17:27:52;;;;;;;4.10;2.35;;;;;;;-1.78;57.01;99167.94;10510500;28;20528;-61
2024/01/16 17:32:54;;;;;;;3.47;1.92;;;;;;;-1.88;57.08;99152.81;10511655;28;20084;-60
2024/01/16 17:37:56;;;;;;;4.30;1.90;;;;;;;-1.93;57.32;99152.91;10517390;28;20158;-61
2024/01/16 17:42:58;;;;;;;3.42;1.83;;;;;;;-1.89;57.69;99154.53;10533304;28;20055;-62
2024/01/16 17:48:00;;;;;;;3.78;1.98;;;;;;;-1.92;57.44;99149.47;10527396;28;20040;-61
2024/01/16 17:53:06;;;;;;;4.55;1.95;;;;;;;-2.00;57.61;99147.06;10527110;28;20080;-61
2024/01/16 17:58:10;;;;;;;3.05;1.85;;;;;;;-2.11;57.56;99143.91;10520242;28;20046;-61
2024/01/16 18:03:14;;;;;;;4.03;1.98;;;;;;;-2.21;58.01;99131.31;10520025;27;20047;-60
2024/01/16 18:08:37;;;;;;;4.47;2.10;;;;;;;-2.29;58.15;99125.53;10521183;28;20404;-61
2024/01/16 18:13:41;;;;;;;3.90;1.77;;;;;;;-2.38;58.15;99118.88;10519529;28;20040;-60
2024/01/16 18:18:45;;;;;;;3.22;1.77;;;;;;;-2.39;58.37;99112.06;10505375;28;20036;-61
2024/01/16 18:23:47;;;;;;;4.60;2.58;;;;;;;-2.40;58.33;99099.28;10520315;28;20452;-60
2024/01/16 18:28:50;;;;;;;6.47;2.55;;;;;;;-2.47;58.50;99095.19;10522382;28;20067;-61
2024/01/16 18:33:52;;;;;;;4.90;2.55;;;;;;;-2.61;58.44;99082.66;10519404;27;20136;-60
2024/01/16 18:38:55;;;;;;;6.03;2.58;;;;;;;-2.72;58.93;99084.59;10521052;28;20048;-61
2024/01/16 18:43:57;;;;;;;8.25;3.15;;;;;;;-2.75;59.09;99076.97;10520279;28;20041;-60
2024/01/16 18:48:59;;;;;;;6.28;2.30;;;;;;;-2.74;59.11;99075.25;10530725;28;20518;-61
2024/01/16 18:54:01;;;;;;;5.07;2.17;;;;;;;-2.82;59.02;99072.88;10499915;28;20526;-61
2024/01/16 18:59:04;;;;;;;8.15;2.05;;;;;;;-2.95;59.08;99066.28;10520322;28;20044;-61
2024/01/16 19:04:12;;;;;;;5.72;2.28;;;;;;;-2.97;59.20;99063.75;10523040;27;20052;-61
2024/01/16 19:09:15;;;;;;;5.15;2.50;;;;;;;-3.01;59.50;99053.63;10524882;28;20400;-61
2024/01/16 19:14:17;;;;;;;7.00;2.83;;;;;;;-3.03;59.13;99052.81;10519586;28;20048;-61
2024/01/16 19:19:20;;;;;;;5.85;2.20;;;;;;;-3.09;59.28;99045.25;10497273;28;20058;-61
2024/01/16 19:24:22;;;;;;;4.53;2.45;;;;;;;-3.14;59.22;99045.34;10503379;28;20499;-60
2024/01/16 19:29:25;;;;;;;5.43;1.90;;;;;;;-3.22;59.20;99046.38;10518690;28;20075;-61
2024/01/16 19:34:27;;;;;;;4.72;2.10;;;;;;;-3.26;59.30;99048.13;10517857;28;20048;-61
2024/01/16 19:39:32;;;;;;;3.80;2.33;;;;;;;-3.28;59.49;99049.84;10518818;28;20153;-61
2024/01/16 19:44:34;;;;;;;3.83;2.20;;;;;;;-3.35;59.60;99048.31;10516467;28;20401;-61
2024/01/16 19:49:37;;;;;;;7.18;2.55;;;;;;;-3.43;59.72;99042.50;10515949;28;20108;-61
2024/01/16 19:54:39;;;;;;;2.92;1.95;;;;;;;-3.47;59.78;99032.34;10516734;28;20728;-61
2024/01/16 19:59:42;;;;;;;4.47;2.80;;;;;;;-3.75;59.30;99031.97;10517613;28;20839;-61
2024/01/16 20:04:44;;;;;;;5.53;2.30;;;;;;;-3.86;59.96;99027.06;10516955;28;20040;-61
2024/01/16 20:09:46;;;;;;;7.50;3.42;;;;;;;-3.97;59.86;99028.91;10515144;28;20080;-61
2024/01/16 20:14:48;;;;;;;5.63;3.05;;;;;;;-3.96;59.93;99015.31;10517221;28;20112;-61
2024/01/16 20:19:50;;;;;;;5.50;2.53;;;;;;;-3.94;59.97;99010.16;10513363;28;20048;-62
2024/01/16 20:24:54;;;;;;;4.75;2.50;;;;;;;-3.90;60.50;99009.25;10516958;28;20044;-61
2024/01/16 20:29:56;;;;;;;4.20;2.40;;;;;;;-3.99;60.20;98999.16;10515436;28;20047;-61
2024/01/16 20:34:58;;;;;;;7.90;3.20;;;;;;;-4.02;60.15;98997.53;10518849;28;20803;-62
2024/01/16 20:40:00;;;;;;;8.80;3.58;;;;;;;-3.99;60.26;99001.72;10520267;28;20075;-61
2024/01/16 20:45:05;;;;;;;10.00;3.97;;;;;;;-4.03;59.84;98998.38;10513698;28;20417;-61
2024/01/16 20:50:09;;;;;;;14.55;4.38;;;;;;;-4.18;60.00;99008.00;10515301;28;20052;-61
2024/01/16 20:55:12;;;;;;;7.53;4.30;;;;;;;-4.16;60.27;99014.75;10520204;28;20044;-61
2024/01/16 21:00:14;;;;;;;11.02;3.72;;;;;;;-4.20;60.07;98992.69;10523618;28;20279;-61
2024/01/16 21:05:16;;;;;;;6.15;3.08;;;;;;;-4.17;60.32;98984.16;10531792;28;20048;-61
2024/01/16 21:10:19;;;;;;;4.47;2.63;;;;;;;-4.15;60.32;98984.97;10523960;28;20054;-61
2024/01/16 21:15:21;;;;;;;6.25;2.60;;;;;;;-4.19;60.24;98981.63;10533598;28;20047;-60
2024/01/16 21:20:23;;;;;;;6.75;2.70;;;;;;;-4.24;60.29;98975.72;10519312;28;20056;-61
2024/01/16 21:25:25;;;;;;;11.27;3.28;;;;;;;-4.27;60.26;98980.06;10539398;28;20051;-61
2024/01/16 21:30:27;;;;;;;6.07;3.15;;;;;;;-4.37;60.23;98976.81;10540709;28;20193;-61
2024/01/16 21:35:29;;;;;;;7.97;3.20;;;;;;;-4.41;60.20;98964.97;10534340;28;20108;-61
2024/01/16 21:40:32;;;;;;;8.05;3.40;;;;;;;-4.46;60.24;98958.25;10535515;28;20136;-61
2024/01/16 21:45:34;;;;;;;11.23;4.22;;;;;;;-4.61;59.82;98949.94;10533139;28;20148;-61
2024/01/16 21:50:36;;;;;;;7.38;3.88;;;;;;;-4.72;60.36;98949.25;10527626;28;20134;-60
2024/01/16 21:55:39;;;;;;;6.95;2.70;;;;;;;-4.92;60.68;98947.84;10532042;28;20048;-61
2024/01/16 22:00:41;;;;;;;6.80;2.97;;;;;;;-5.00;60.64;98942.00;10531387;28;20127;-61
2024/01/16 22:05:43;;;;;;;4.65;2.40;;;;;;;-5.05;60.77;98933.56;10532958;28;20086;-61
2024/01/16 22:10:45;;;;;;;6.55;3.15;;;;;;;-5.02;60.72;98931.00;10541389;28;20044;-61
2024/01/16 22:15:48;;;;;;;8.65;3.65;;;;;;;-5.10;60.91;98932.81;10514733;28;20098;-60
2024/01/16 22:20:50;;;;;;;6.78;2.38;;;;;;;-5.05;60.72;98910.63;10532768;28;20044;-60
2024/01/16 22:25:52;;;;;;;11.50;3.10;;;;;;;-5.05;60.77;98902.97;10532330;28;20055;-61
2024/01/16 22:30:55;;;;;;;11.88;4.63;;;;;;;-5.12;60.51;98903.94;10528127;28;20055;-63
2024/01/16 22:35:57;;;;;;;11.00;5.00;;;;;;;-5.36;60.31;98890.66;10522009;28;20051;-64
2024/01/16 22:40:59;;;;;;;15.55;4.63;;;;;;;-5.36;60.68;98880.47;10522701;28;20051;-62
2024/01/16 22:46:02;;;;;;;10.57;4.07;;;;;;;-5.29;60.73;98883.78;10522571;28;20105;-62
2024/01/16 22:51:04;;;;;;;10.93;4.75;;;;;;;-5.34;60.49;98877.06;10524306;28;20062;-62
2024/01/16 22:56:06;;;;;;;7.32;3.22;;;;;;;-5.42;60.47;98872.91;10520723;28;20415;-62
2024/01/16 23:01:08;;;;;;;8.52;2.92;;;;;;;-5.41;60.61;98866.94;10521854;28;20340;-62
2024/01/16 23:06:16;;;;;;;9.57;4.22;;;;;;;-5.59;60.23;98859.56;10522002;28;20036;-62
2024/01/16 23:11:18;;;;;;;13.32;4.65;;;;;;;-5.58;60.57;98847.63;10534968;28;20383;-62
2024/01/16 23:16:21;;;;;;;9.13;4.97;;;;;;;-5.47;60.59;98845.81;10520171;28;20054;-62
2024/01/16 23:21:24;;;;;;;9.50;5.80;;;;;;;-5.44;60.58;98816.03;10528017;28;20056;-62
2024/01/16 23:26:26;;;;;;;5.63;2.78;;;;;;;-5.61;59.60;98815.44;10520815;28;20048;-62
2024/01/16 23:31:29;;;;;;;10.15;3.22;;;;;;;-5.82;60.65;98817.38;10503789;28;20044;-62
2024/01/16 23:36:33;;;;;;;7.93;3.90;;;;;;;-5.96;60.61;98811.63;10519061;28;20131;-63